Time;durP1;ratioP1;P1;durP2;ratioP2;P2;SDS_P1;SDS_P2;PMS_P1;PMS_P2;Temp;Humidity;BMP_temperature;BMP_pressure;BME280_temperature;BME280_humidity;BME280_pressure;Samples;Min_cycle;Max_cycle;Signal;HPM_P1;HPM_P2
2021/10/11 00:00:09;;;;;;;11.60;7.78;;;8.70;99.90;;;;;;5016060;28;20017;-88
2021/10/11 00:02:35;;;;;;;12.70;7.40;;;8.50;99.90;;;;;;5033703;28;20021;-87
2021/10/11 00:05:01;;;;;;;12.23;8.48;;;8.40;99.90;;;;;;5016016;28;20366;-87
2021/10/11 00:07:26;;;;;;;11.30;7.03;;;8.30;99.90;;;;;;5016033;28;20053;-87
2021/10/11 00:09:52;;;;;;;14.05;7.35;;;8.30;99.90;;;;;;5015973;28;20029;-87
2021/10/11 00:12:21;;;;;;;14.63;7.40;;;8.10;99.90;;;;;;5015925;28;20061;-88
2021/10/11 00:14:48;;;;;;;15.23;7.95;;;8.00;99.90;;;;;;5015806;28;20029;-87
2021/10/11 00:17:14;;;;;;;14.02;7.90;;;7.50;99.90;;;;;;5033405;28;20029;-88
2021/10/11 00:19:39;;;;;;;13.63;8.05;;;7.50;99.90;;;;;;5033342;28;20017;-88
2021/10/11 00:22:05;;;;;;;11.70;7.47;;;7.10;99.90;;;;;;5015828;28;20018;-88
2021/10/11 00:24:31;;;;;;;11.30;7.72;;;7.30;99.90;;;;;;5015953;28;20467;-88
2021/10/11 00:26:57;;;;;;;11.75;7.95;;;7.70;99.90;;;;;;5016199;28;20477;-87
2021/10/11 00:29:23;;;;;;;11.45;7.57;;;7.80;99.90;;;;;;5015983;28;20069;-88
2021/10/11 00:31:48;;;;;;;10.60;7.15;;;8.30;99.90;;;;;;5015704;28;20434;-88
2021/10/11 00:34:14;;;;;;;11.77;7.30;;;8.00;99.90;;;;;;5015646;28;20112;-87
2021/10/11 00:36:40;;;;;;;14.50;7.35;;;8.00;99.90;;;;;;5033249;28;20079;-87
2021/10/11 00:39:05;;;;;;;12.52;7.63;;;8.00;99.90;;;;;;5033103;28;20028;-88
2021/10/11 00:41:31;;;;;;;14.00;7.15;;;7.70;99.90;;;;;;5033277;28;20064;-88
2021/10/11 00:43:59;;;;;;;11.93;7.10;;;7.80;99.90;;;;;;5033209;28;20048;-88
2021/10/11 00:46:25;;;;;;;10.23;7.03;;;7.70;99.90;;;;;;5015479;28;20481;-87
2021/10/11 00:48:51;;;;;;;13.00;7.03;;;8.10;99.90;;;;;;5033128;28;20103;-88
2021/10/11 00:51:17;;;;;;;8.68;5.97;;;8.50;99.90;;;;;;5015483;28;20481;-88
2021/10/11 00:53:43;;;;;;;14.48;7.68;;;8.50;99.90;;;;;;5015506;28;20046;-87
2021/10/11 00:56:09;;;;;;;13.13;7.63;;;8.30;99.90;;;;;;5015462;28;20069;-87
2021/10/11 00:58:34;;;;;;;12.35;7.05;;;8.10;99.90;;;;;;5032938;28;20029;-88
2021/10/11 01:01:00;;;;;;;12.43;7.07;;;7.80;99.90;;;;;;5015477;28;20043;-87
2021/10/11 01:03:26;;;;;;;16.17;7.63;;;7.40;99.90;;;;;;5015432;28;20489;-88
2021/10/11 01:05:53;;;;;;;12.35;7.43;;;7.10;99.90;;;;;;5015263;28;20105;-88
2021/10/11 01:08:19;;;;;;;10.10;7.15;;;6.80;99.90;;;;;;5015351;28;20026;-88
2021/10/11 01:10:47;;;;;;;10.88;6.72;;;6.70;99.90;;;;;;5015290;28;20117;-88
2021/10/11 01:13:13;;;;;;;12.70;7.38;;;7.40;99.90;;;;;;5015597;28;20480;-88
2021/10/11 01:15:39;;;;;;;11.60;7.40;;;7.80;99.90;;;;;;5015279;28;20113;-88
2021/10/11 01:18:05;;;;;;;14.52;7.72;;;8.10;99.90;;;;;;5015453;28;20557;-88
2021/10/11 01:20:31;;;;;;;13.80;7.75;;;7.50;99.90;;;;;;5019024;28;20092;-89
2021/10/11 01:22:57;;;;;;;14.48;8.15;;;7.70;99.90;;;;;;5018935;28;20384;-89
2021/10/11 01:25:23;;;;;;;13.85;7.35;;;7.00;99.90;;;;;;5018986;28;20025;-88
2021/10/11 01:27:48;;;;;;;12.20;7.43;;;7.00;99.90;;;;;;5018845;28;20057;-88
2021/10/11 01:30:15;;;;;;;10.25;7.00;;;7.90;99.90;;;;;;5018882;28;20026;-88
2021/10/11 01:32:45;;;;;;;10.70;7.35;;;7.90;99.90;;;;;;5018974;28;20029;-88
2021/10/11 01:35:11;;;;;;;15.65;7.03;;;7.60;99.90;;;;;;5019203;28;20484;-88
2021/10/11 01:37:37;;;;;;;10.70;7.40;;;8.00;99.90;;;;;;5018701;28;20027;-88
2021/10/11 01:40:06;;;;;;;10.80;7.82;;;7.80;99.90;;;;;;5018810;28;20036;-88
2021/10/11 01:42:32;;;;;;;11.98;7.68;;;7.80;99.90;;;;;;5036339;28;20522;-88
2021/10/11 01:44:58;;;;;;;14.68;6.47;;;7.80;99.90;;;;;;5018575;28;20032;-88
2021/10/11 01:47:25;;;;;;;11.65;7.60;;;8.00;99.90;;;;;;5036429;28;20481;-87
2021/10/11 01:49:51;;;;;;;11.52;6.80;;;7.90;99.90;;;;;;5018599;28;20025;-88
2021/10/11 01:52:17;;;;;;;9.85;6.55;;;8.40;99.90;;;;;;5018626;28;20033;-88
2021/10/11 01:54:43;;;;;;;11.63;7.20;;;8.70;99.90;;;;;;5018188;28;20083;-88
2021/10/11 01:57:09;;;;;;;10.02;6.85;;;8.20;99.90;;;;;;5018947;28;20499;-88
2021/10/11 01:59:34;;;;;;;10.60;6.30;;;8.10;99.90;;;;;;5018364;28;20026;-88
2021/10/11 02:02:02;;;;;;;12.02;7.32;;;8.40;99.90;;;;;;5018245;28;20024;-88
2021/10/11 02:04:28;;;;;;;9.73;6.72;;;7.70;99.90;;;;;;5018224;28;20028;-88
2021/10/11 02:06:54;;;;;;;10.93;7.57;;;7.60;99.90;;;;;;5018204;28;20025;-89
2021/10/11 02:09:20;;;;;;;13.98;7.88;;;7.50;99.90;;;;;;5018116;28;20079;-88
2021/10/11 02:11:46;;;;;;;14.50;8.50;;;7.40;99.90;;;;;;5018200;28;20396;-88
2021/10/11 02:14:11;;;;;;;14.43;7.90;;;7.00;99.90;;;;;;5018160;28;20030;-88
2021/10/11 02:16:37;;;;;;;11.63;7.15;;;6.70;99.90;;;;;;5018022;28;20021;-88
2021/10/11 02:19:03;;;;;;;12.52;7.43;;;6.40;99.90;;;;;;5017915;28;20026;-89
2021/10/11 02:21:29;;;;;;;14.63;7.53;;;6.30;99.90;;;;;;5018291;28;20113;-89
2021/10/11 02:23:55;;;;;;;12.40;6.95;;;6.20;99.90;;;;;;5017890;28;20018;-88
2021/10/11 02:26:22;;;;;;;13.93;6.45;;;6.40;99.90;;;;;;5017928;28;20477;-89
2021/10/11 02:28:48;;;;;;;12.20;7.32;;;6.90;99.90;;;;;;5035487;28;20045;-88
2021/10/11 02:31:14;;;;;;;12.70;7.15;;;6.70;99.90;;;;;;5034529;28;20033;-88
2021/10/11 02:33:40;;;;;;;12.00;7.13;;;6.80;99.90;;;;;;5017921;28;20029;-88
2021/10/11 02:36:06;;;;;;;12.35;6.72;;;7.30;99.90;;;;;;5036201;28;20474;-88
2021/10/11 02:38:31;;;;;;;10.88;7.82;;;7.30;99.90;;;;;;5017969;28;20033;-89
2021/10/11 02:40:57;;;;;;;13.75;7.80;;;6.80;99.90;;;;;;5017804;28;20026;-89
2021/10/11 02:43:23;;;;;;;14.82;7.07;;;6.40;99.90;;;;;;5017636;28;20108;-89
2021/10/11 02:45:48;;;;;;;12.63;7.57;;;6.30;99.90;;;;;;5017650;28;20481;-89
2021/10/11 02:48:14;;;;;;;9.60;7.18;;;6.60;99.90;;;;;;5035159;28;20029;-88
2021/10/11 02:50:40;;;;;;;13.35;6.68;;;6.50;99.90;;;;;;5017441;28;20033;-88
2021/10/11 02:53:06;;;;;;;9.68;6.78;;;7.20;99.90;;;;;;5017360;28;20026;-88
2021/10/11 02:55:31;;;;;;;11.32;6.40;;;7.50;99.90;;;;;;5014122;28;20082;-88
2021/10/11 02:57:57;;;;;;;14.07;7.03;;;7.90;99.90;;;;;;5014146;28;20022;-88
2021/10/11 03:00:23;;;;;;;13.90;7.28;;;7.60;99.90;;;;;;5014061;28;20109;-88
2021/10/11 03:02:49;;;;;;;10.32;6.68;;;7.00;99.90;;;;;;5014012;28;20026;-87
2021/10/11 03:05:14;;;;;;;14.32;6.30;;;7.00;99.90;;;;;;5013919;28;20033;-89
2021/10/11 03:07:40;;;;;;;13.10;7.18;;;7.30;99.90;;;;;;5013875;28;20029;-88
2021/10/11 03:10:06;;;;;;;11.40;7.22;;;6.90;99.90;;;;;;5013813;28;20025;-88
2021/10/11 03:12:33;;;;;;;10.32;7.40;;;6.90;99.90;;;;;;5014312;28;20046;-88
2021/10/11 03:14:59;;;;;;;12.80;7.07;;;6.60;99.90;;;;;;5013796;28;20397;-88
2021/10/11 03:17:25;;;;;;;11.23;7.03;;;7.00;99.90;;;;;;5013618;28;20037;-89
2021/10/11 03:19:51;;;;;;;10.52;7.22;;;7.10;99.90;;;;;;5013628;28;20495;-88
2021/10/11 03:22:16;;;;;;;13.77;7.05;;;7.50;99.90;;;;;;5014135;28;20034;-88
2021/10/11 03:24:42;;;;;;;14.43;7.45;;;7.50;99.90;;;;;;5013415;28;20022;-88
2021/10/11 03:27:08;;;;;;;11.48;6.88;;;7.20;99.90;;;;;;5013403;28;20029;-88
2021/10/11 03:29:33;;;;;;;12.07;7.85;;;7.70;99.90;;;;;;5013354;28;20032;-88
2021/10/11 03:31:59;;;;;;;12.90;7.70;;;7.20;99.90;;;;;;5014875;28;20022;-88
2021/10/11 03:34:25;;;;;;;13.60;8.05;;;6.70;99.90;;;;;;5013393;28;20041;-88
2021/10/11 03:36:50;;;;;;;12.10;7.28;;;6.40;99.90;;;;;;5014564;28;20026;-90
2021/10/11 03:39:16;;;;;;;15.02;8.60;;;6.50;99.90;;;;;;5013077;28;20079;-88
2021/10/11 03:41:42;;;;;;;11.95;7.38;;;6.20;99.90;;;;;;5012907;28;20071;-88
2021/10/11 03:44:07;;;;;;;11.77;8.15;;;6.70;99.90;;;;;;5014931;28;20018;-88
2021/10/11 03:46:33;;;;;;;12.93;8.38;;;6.50;99.90;;;;;;5013461;28;20022;-89
2021/10/11 03:49:00;;;;;;;17.58;7.88;;;6.20;99.90;;;;;;5013041;28;20030;-89
2021/10/11 03:51:26;;;;;;;9.98;6.88;;;6.10;99.90;;;;;;5014356;28;20161;-88
2021/10/11 03:53:51;;;;;;;12.32;8.02;;;6.70;99.90;;;;;;5013037;28;20065;-88
2021/10/11 03:56:17;;;;;;;14.80;8.55;;;7.00;99.90;;;;;;5012885;28;20033;-88
2021/10/11 03:58:43;;;;;;;12.48;8.02;;;6.70;99.90;;;;;;5012877;28;20076;-89
2021/10/11 04:01:08;;;;;;;12.80;7.53;;;6.90;99.90;;;;;;5012904;28;20026;-88
2021/10/11 04:03:34;;;;;;;11.65;8.32;;;7.00;99.90;;;;;;5012914;28;20028;-88
2021/10/11 04:06:00;;;;;;;12.10;7.25;;;6.80;99.90;;;;;;5012949;28;20025;-88
2021/10/11 04:08:35;;;;;;;10.10;7.05;;;6.50;99.90;;;;;;5012903;28;20088;-89
2021/10/11 04:11:07;;;;;;;12.45;8.02;;;6.70;99.90;;;;;;5012919;28;20087;-88
2021/10/11 04:13:32;;;;;;;12.93;7.93;;;6.40;99.90;;;;;;5012749;28;20037;-88
2021/10/11 04:15:58;;;;;;;14.05;7.72;;;6.30;99.90;;;;;;5012635;28;20029;-89
2021/10/11 04:18:24;;;;;;;15.43;7.72;;;6.10;99.90;;;;;;5013877;28;20103;-88
2021/10/11 04:20:50;;;;;;;12.75;8.45;;;5.70;99.90;;;;;;5012746;28;20021;-88
2021/10/11 04:23:16;;;;;;;11.75;8.55;;;5.60;99.90;;;;;;5014096;28;20033;-88
2021/10/11 04:25:41;;;;;;;16.85;10.88;;;5.90;99.90;;;;;;5013841;28;20026;-88
2021/10/11 04:28:09;;;;;;;13.70;9.75;;;5.90;99.90;;;;;;5012685;28;20486;-89
2021/10/11 04:30:35;;;;;;;12.45;8.32;;;5.70;99.90;;;;;;5013354;28;20381;-89
2021/10/11 04:33:01;;;;;;;12.15;8.00;;;5.90;99.90;;;;;;5012573;28;20026;-89
2021/10/11 04:35:27;;;;;;;12.98;7.30;;;6.20;99.90;;;;;;5012521;28;20497;-88
2021/10/11 04:37:53;;;;;;;12.20;8.15;;;6.30;99.90;;;;;;5012355;28;20033;-88
2021/10/11 04:40:19;;;;;;;13.80;8.00;;;6.40;99.90;;;;;;5013830;28;20076;-88
2021/10/11 04:42:45;;;;;;;16.75;8.70;;;6.50;99.90;;;;;;5012583;28;20022;-88
2021/10/11 04:45:12;;;;;;;16.00;7.90;;;6.50;99.90;;;;;;5012678;28;20060;-88
2021/10/11 04:47:38;;;;;;;14.48;8.40;;;6.90;99.90;;;;;;5013026;28;20029;-88
2021/10/11 04:50:05;;;;;;;13.80;7.90;;;7.10;99.90;;;;;;5012725;28;20068;-88
2021/10/11 04:52:31;;;;;;;11.88;7.43;;;7.20;99.90;;;;;;5012476;28;20052;-89
2021/10/11 04:54:58;;;;;;;11.38;7.80;;;7.40;99.90;;;;;;5015437;28;20054;-89
2021/10/11 04:57:24;;;;;;;10.73;7.28;;;7.40;99.90;;;;;;5016567;28;20113;-88
2021/10/11 04:59:49;;;;;;;15.07;7.35;;;7.10;99.90;;;;;;5016179;28;20022;-88
2021/10/11 05:02:15;;;;;;;14.52;7.90;;;7.20;99.90;;;;;;5016144;28;20037;-88
2021/10/11 05:04:41;;;;;;;12.27;7.20;;;7.40;99.90;;;;;;5017528;28;20026;-88
2021/10/11 05:07:07;;;;;;;15.23;8.05;;;7.20;99.90;;;;;;5016130;28;20018;-88
2021/10/11 05:09:32;;;;;;;13.90;8.60;;;7.20;99.90;;;;;;5016070;28;20125;-88
2021/10/11 05:11:58;;;;;;;9.90;7.35;;;6.80;99.90;;;;;;5016217;28;20022;-88
2021/10/11 05:14:24;;;;;;;14.52;8.27;;;6.60;99.90;;;;;;5016077;28;20026;-88
2021/10/11 05:16:50;;;;;;;13.43;8.88;;;6.70;99.90;;;;;;5015896;28;20022;-87
2021/10/11 05:19:24;;;;;;;14.40;9.52;;;6.60;99.90;;;;;;5017607;28;20026;-88
2021/10/11 05:21:49;;;;;;;12.20;8.20;;;6.20;99.90;;;;;;5015983;28;20088;-88
2021/10/11 05:24:17;;;;;;;13.63;7.68;;;6.30;99.90;;;;;;5015755;28;20065;-87
2021/10/11 05:26:42;;;;;;;13.35;8.35;;;6.70;99.90;;;;;;5017100;28;20014;-88
2021/10/11 05:29:08;;;;;;;12.63;8.65;;;6.30;99.90;;;;;;5015630;28;20061;-89
2021/10/11 05:31:34;;;;;;;11.57;8.40;;;5.90;99.90;;;;;;5015642;28;20542;-88
2021/10/11 05:34:00;;;;;;;18.27;8.02;;;6.00;99.90;;;;;;5016759;28;20026;-88
2021/10/11 05:36:27;;;;;;;11.77;8.57;;;6.30;99.90;;;;;;5015444;28;20036;-89
2021/10/11 05:38:54;;;;;;;15.57;9.88;;;6.20;99.90;;;;;;5015419;28;20421;-88
2021/10/11 05:41:19;;;;;;;17.35;9.10;;;6.00;99.90;;;;;;5015717;28;20022;-88
2021/10/11 05:43:45;;;;;;;14.00;8.75;;;5.80;99.90;;;;;;5015474;28;20047;-88
2021/10/11 05:46:11;;;;;;;17.85;9.68;;;5.80;99.90;;;;;;5015459;28;20018;-89
2021/10/11 05:48:37;;;;;;;16.30;9.38;;;5.70;99.90;;;;;;5015345;28;20081;-88
2021/10/11 05:51:03;;;;;;;12.15;8.02;;;5.80;99.90;;;;;;5015343;28;20371;-88
2021/10/11 05:53:28;;;;;;;18.58;9.60;;;5.80;99.90;;;;;;5017315;28;20087;-89
2021/10/11 05:55:54;;;;;;;16.50;9.35;;;6.00;99.90;;;;;;5018582;28;20037;-88
2021/10/11 05:58:20;;;;;;;17.88;9.18;;;6.20;99.90;;;;;;5018324;28;20030;-88
2021/10/11 06:00:45;;;;;;;17.17;9.73;;;5.70;99.90;;;;;;5036103;28;20029;-89
2021/10/11 06:03:11;;;;;;;12.88;7.72;;;6.10;99.90;;;;;;5018371;28;20022;-88
2021/10/11 06:05:37;;;;;;;12.40;8.13;;;6.00;99.90;;;;;;5018284;28;20080;-88
2021/10/11 06:08:03;;;;;;;13.95;7.50;;;6.50;99.90;;;;;;5018258;28;20479;-89
2021/10/11 06:10:29;;;;;;;14.25;7.72;;;6.90;99.90;;;;;;5018280;28;20037;-88
2021/10/11 06:12:55;;;;;;;13.65;7.63;;;7.30;99.90;;;;;;5018280;28;20021;-88
2021/10/11 06:15:21;;;;;;;12.73;8.32;;;7.40;99.90;;;;;;5035886;28;20083;-88
2021/10/11 06:17:47;;;;;;;11.70;7.20;;;7.70;99.90;;;;;;5018098;28;20029;-89
2021/10/11 06:20:12;;;;;;;10.73;7.13;;;7.90;99.90;;;;;;5035839;28;20032;-89
2021/10/11 06:22:38;;;;;;;12.57;8.30;;;7.80;99.90;;;;;;5035818;28;20018;-89
2021/10/11 06:25:05;;;;;;;11.50;7.68;;;7.90;99.90;;;;;;5017975;28;20022;-88
2021/10/11 06:27:31;;;;;;;13.60;8.13;;;8.00;99.90;;;;;;5018276;28;20037;-89
2021/10/11 06:29:57;;;;;;;15.88;7.75;;;7.90;99.90;;;;;;5017882;28;20025;-88
2021/10/11 06:32:23;;;;;;;36.15;8.48;;;7.60;99.90;;;;;;5017763;28;20381;-89
2021/10/11 06:34:49;;;;;;;15.88;7.57;;;7.40;99.90;;;;;;5017783;28;20034;-88
2021/10/11 06:37:14;;;;;;;15.95;8.10;;;7.20;99.90;;;;;;5017690;28;20029;-88
2021/10/11 06:39:40;;;;;;;13.68;7.75;;;7.00;99.90;;;;;;5035377;28;20056;-88
2021/10/11 06:42:06;;;;;;;12.80;8.23;;;6.60;99.90;;;;;;5017719;28;20021;-89
2021/10/11 06:44:32;;;;;;;12.27;7.70;;;6.90;99.90;;;;;;5035328;28;20072;-88
2021/10/11 06:46:58;;;;;;;13.80;7.32;;;6.90;99.90;;;;;;5017624;28;20458;-88
2021/10/11 06:49:24;;;;;;;14.10;7.97;;;6.90;99.90;;;;;;5016942;28;20049;-88
2021/10/11 06:51:50;;;;;;;12.70;7.63;;;7.30;99.90;;;;;;5017547;28;20033;-88
2021/10/11 06:54:16;;;;;;;11.68;7.55;;;7.20;99.90;;;;;;5035218;28;20046;-88
2021/10/11 06:56:42;;;;;;;13.90;7.95;;;7.10;99.90;;;;;;5018163;28;20033;-88
2021/10/11 06:59:07;;;;;;;13.48;7.75;;;7.50;99.90;;;;;;5017994;28;20519;-88
2021/10/11 07:01:33;;;;;;;14.07;7.82;;;7.70;99.90;;;;;;5017882;28;20025;-88
2021/10/11 07:03:59;;;;;;;13.00;8.77;;;8.00;99.90;;;;;;5017335;28;20477;-89
2021/10/11 07:06:25;;;;;;;15.00;8.48;;;8.10;99.90;;;;;;5017410;28;20496;-89
2021/10/11 07:08:52;;;;;;;13.13;7.78;;;8.10;99.90;;;;;;5017289;28;20029;-88
2021/10/11 07:11:19;;;;;;;12.20;8.52;;;8.30;99.90;;;;;;5017509;28;20374;-88
2021/10/11 07:13:45;;;;;;;12.32;8.18;;;8.30;99.90;;;;;;5017078;28;20026;-88
2021/10/11 07:16:11;;;;;;;8.88;6.47;;;8.60;99.90;;;;;;5016722;28;20132;-88
2021/10/11 07:18:37;;;;;;;17.08;8.88;;;8.60;99.90;;;;;;5017183;28;20025;-89
2021/10/11 07:21:05;;;;;;;13.75;8.93;;;8.80;99.90;;;;;;5016952;28;20052;-88
2021/10/11 07:23:32;;;;;;;21.33;8.68;;;8.60;99.90;;;;;;5034779;28;20013;-88
2021/10/11 07:25:59;;;;;;;14.75;8.98;;;8.30;99.90;;;;;;5016974;28;20033;-89
2021/10/11 07:28:25;;;;;;;12.88;8.43;;;8.20;99.90;;;;;;5034678;28;20053;-88
2021/10/11 07:30:53;;;;;;;18.92;10.57;;;8.20;99.90;;;;;;5034705;28;20056;-88
2021/10/11 07:33:19;;;;;;;13.70;9.50;;;8.20;99.90;;;;;;5016926;28;20095;-90
2021/10/11 07:35:45;;;;;;;10.80;7.32;;;8.40;99.90;;;;;;5017157;28;20428;-89
2021/10/11 07:38:10;;;;;;;15.82;8.13;;;8.80;99.90;;;;;;5034816;28;20105;-89
2021/10/11 07:40:37;;;;;;;14.73;8.77;;;8.80;99.90;;;;;;5016647;28;20017;-89
2021/10/11 07:43:03;;;;;;;16.10;8.98;;;8.60;99.90;;;;;;5016888;28;20108;-89
2021/10/11 07:45:29;;;;;;;10.75;7.97;;;8.60;99.90;;;;;;5016536;28;20029;-89
2021/10/11 07:47:55;;;;;;;10.45;7.70;;;8.60;99.90;;;;;;5016521;28;20112;-89
2021/10/11 07:50:20;;;;;;;12.60;8.05;;;9.00;99.90;;;;;;5016787;28;20060;-89
2021/10/11 07:52:46;;;;;;;14.68;8.20;;;9.30;99.90;;;;;;5016589;28;20033;-89
2021/10/11 07:55:12;;;;;;;11.23;8.40;;;9.20;99.90;;;;;;5034174;28;20053;-89
2021/10/11 07:57:39;;;;;;;14.68;8.23;;;9.30;99.90;;;;;;5016403;28;20034;-89
2021/10/11 08:00:07;;;;;;;17.63;9.38;;;9.50;99.90;;;;;;5016429;28;20025;-89
2021/10/11 08:02:33;;;;;;;16.40;8.70;;;9.70;99.90;;;;;;5016424;28;20080;-88
2021/10/11 08:04:58;;;;;;;12.80;8.40;;;9.90;99.90;;;;;;5016546;28;20029;-89
2021/10/11 08:07:24;;;;;;;13.07;7.93;;;10.20;99.90;;;;;;5016530;28;20018;-91
2021/10/11 08:09:50;;;;;;;19.00;8.65;;;10.30;99.90;;;;;;5016457;28;20028;-89
2021/10/11 08:12:15;;;;;;;18.73;8.73;;;10.20;99.90;;;;;;5016380;28;20029;-90
2021/10/11 08:14:41;;;;;;;14.38;9.35;;;10.20;99.90;;;;;;5016459;28;20415;-89
2021/10/11 08:17:07;;;;;;;15.32;9.48;;;10.30;99.90;;;;;;5016414;28;20116;-89
2021/10/11 08:19:33;;;;;;;17.80;8.73;;;10.50;99.90;;;;;;5033684;28;20057;-89
2021/10/11 08:21:59;;;;;;;13.38;8.15;;;10.50;99.90;;;;;;5033851;28;20440;-89
2021/10/11 08:24:24;;;;;;;15.60;8.55;;;10.60;99.90;;;;;;5016113;28;20078;-89
2021/10/11 08:26:50;;;;;;;16.67;10.00;;;10.50;99.90;;;;;;5016070;28;20040;-89
2021/10/11 08:29:16;;;;;;;16.35;9.98;;;10.60;99.90;;;;;;5015116;28;20060;-89
2021/10/11 08:31:41;;;;;;;15.70;8.20;;;10.80;99.90;;;;;;5015995;28;20036;-88
2021/10/11 08:34:07;;;;;;;19.27;9.05;;;11.10;99.90;;;;;;5015783;28;20120;-89
2021/10/11 08:36:33;;;;;;;13.45;8.85;;;11.40;99.90;;;;;;5015923;28;20103;-89
2021/10/11 08:38:59;;;;;;;13.38;8.98;;;11.60;99.90;;;;;;5015761;28;20128;-89
2021/10/11 08:41:25;;;;;;;13.80;8.73;;;11.70;99.90;;;;;;5015934;28;20029;-88
2021/10/11 08:43:50;;;;;;;15.05;8.55;;;11.80;99.90;;;;;;5033520;28;20073;-90
2021/10/11 08:46:16;;;;;;;14.75;7.82;;;11.90;99.90;;;;;;5015820;28;20030;-89
2021/10/11 08:48:42;;;;;;;11.23;8.15;;;12.00;99.90;;;;;;5015781;28;20496;-89
2021/10/11 08:51:09;;;;;;;17.15;9.48;;;12.30;99.90;;;;;;5015768;28;20076;-89
2021/10/11 08:53:36;;;;;;;14.10;8.48;;;12.40;99.90;;;;;;5015671;28;20029;-90
2021/10/11 08:56:02;;;;;;;17.00;9.25;;;12.70;99.90;;;;;;5015741;28;20120;-90
2021/10/11 08:58:28;;;;;;;17.63;8.15;;;12.80;99.90;;;;;;5015673;28;20072;-89
2021/10/11 09:01:07;;;;;;;13.93;8.18;;;13.00;99.90;;;;;;5016004;28;20025;-89
2021/10/11 09:03:33;;;;;;;17.35;9.02;;;12.90;99.90;;;;;;5033514;28;20018;-88
2021/10/11 09:06:10;;;;;;;18.38;8.18;;;13.00;99.90;;;;;;5018200;28;20037;-88
2021/10/11 09:08:36;;;;;;;13.30;8.02;;;13.10;99.90;;;;;;5016523;28;20112;-88
2021/10/11 09:11:08;;;;;;;13.85;8.38;;;13.30;99.90;;;;;;5015964;28;20072;-87
2021/10/11 09:13:53;;;;;;;12.10;7.45;;;13.20;99.90;;;;;;5015676;28;20427;-88
2021/10/11 09:16:29;;;;;;;;;;;13.30;99.90;;;;;;5015823;28;20055;-88
2021/10/11 09:18:58;;;;;;;15.90;9.55;;;13.10;99.90;;;;;;5016344;28;20308;-87
2021/10/11 09:21:31;;;;;;;14.32;8.38;;;13.00;99.90;;;;;;5015499;28;20028;-89
2021/10/11 09:24:07;;;;;;;16.27;9.07;;;13.00;99.90;;;;;;5015122;28;20021;-89
2021/10/11 09:26:48;;;;;;;15.38;10.05;;;12.90;99.90;;;;;;5032861;28;20021;-88
2021/10/11 09:29:15;;;;;;;15.98;9.25;;;13.00;99.90;;;;;;5015278;28;20029;-89
2021/10/11 09:31:47;;;;;;;16.65;9.88;;;13.20;99.90;;;;;;5015332;28;20032;-88
2021/10/11 09:34:19;;;;;;;13.80;8.73;;;13.30;99.90;;;;;;5033254;28;20022;-89
2021/10/11 09:37:05;;;;;;;13.23;9.05;;;13.60;99.90;;;;;;5015661;28;20053;-88
2021/10/11 09:39:34;;;;;;;16.88;9.80;;;13.90;99.90;;;;;;5015517;28;20030;-88
2021/10/11 09:42:03;;;;;;;18.33;8.75;;;13.90;99.90;;;;;;5018623;28;20025;-88
2021/10/11 09:44:29;;;;;;;15.30;8.30;;;14.10;99.90;;;;;;5036261;28;20022;-88
2021/10/11 09:47:16;;;;;;;15.75;8.70;;;14.40;99.90;;;;;;5018486;28;20477;-88
2021/10/11 09:49:42;;;;;;;18.20;8.20;;;14.60;99.90;;;;;;5035819;28;20033;-88
2021/10/11 09:52:09;;;;;;;18.63;9.45;;;14.50;99.90;;;;;;5018661;28;20485;-88
2021/10/11 09:54:35;;;;;;;11.88;8.00;;;14.80;99.90;;;;;;5018101;28;20562;-88
2021/10/11 09:57:04;;;;;;;13.10;8.60;;;14.80;99.90;;;;;;5018375;28;20112;-88
2021/10/11 09:59:33;;;;;;;14.60;8.88;;;15.00;99.90;;;;;;5018211;28;20029;-88
2021/10/11 10:01:59;;;;;;;19.00;8.75;;;15.00;99.90;;;;;;5018328;28;20026;-88
2021/10/11 10:04:32;;;;;;;15.63;9.27;;;15.30;99.90;;;;;;5018190;28;20026;-88
2021/10/11 10:07:01;;;;;;;12.77;7.30;;;15.70;99.90;;;;;;5018123;28;20497;-87
2021/10/11 10:09:29;;;;;;;18.73;10.07;;;16.00;99.90;;;;;;5018022;28;20025;-88
2021/10/11 10:11:56;;;;;;;16.95;8.15;;;16.00;99.90;;;;;;5018011;28;20029;-88
2021/10/11 10:14:24;;;;;;;12.73;7.50;;;16.20;99.90;;;;;;5017976;28;20029;-89
2021/10/11 10:16:52;;;;;;;14.63;8.13;;;16.30;99.90;;;;;;5018159;28;20488;-89
2021/10/11 10:19:20;;;;;;;13.98;7.78;;;16.50;99.90;;;;;;5017812;28;20535;-88
2021/10/11 10:21:46;;;;;;;21.00;11.02;;;16.30;99.90;;;;;;5017889;28;20032;-87
2021/10/11 10:24:24;;;;;;;11.82;8.43;;;16.20;99.90;;;;;;5035598;28;20021;-88
2021/10/11 10:27:04;;;;;;;15.98;9.70;;;16.10;99.90;;;;;;5018763;28;20032;-87
2021/10/11 10:29:43;;;;;;;23.85;13.52;;;16.00;99.90;;;;;;5017810;28;20096;-89
2021/10/11 10:32:13;;;;;;;14.05;10.38;;;16.50;99.90;;;;;;5017869;28;20480;-88
2021/10/11 10:34:39;;;;;;;17.90;9.40;;;16.50;99.90;;;;;;5017841;28;20450;-89
2021/10/11 10:37:09;;;;;;;21.25;9.40;;;16.80;99.90;;;;;;5021079;28;20057;-88
2021/10/11 10:39:44;;;;;;;14.15;7.15;;;16.70;99.90;;;;;;5002713;28;20033;-88
2021/10/11 10:42:27;;;;;;;14.82;9.07;;;17.20;99.90;;;;;;5036781;28;20030;-88
2021/10/11 10:44:54;;;;;;;13.70;7.50;;;17.70;99.90;;;;;;5017925;28;20477;-88
2021/10/11 10:47:34;;;;;;;13.57;8.45;;;17.90;99.90;;;;;;5018392;28;20033;-89
2021/10/11 10:50:01;;;;;;;13.85;8.95;;;17.90;99.90;;;;;;5017329;28;20029;-88
2021/10/11 10:52:27;;;;;;;14.40;7.45;;;18.30;99.90;;;;;;5016447;28;20393;-90
2021/10/11 10:54:55;;;;;;;15.85;8.10;;;18.60;99.90;;;;;;5017502;28;20045;-89
2021/10/11 10:57:24;;;;;;;15.63;7.60;;;19.00;99.90;;;;;;5035075;28;20385;-89
2021/10/11 10:59:58;;;;;;;11.93;7.30;;;19.30;99.90;;;;;;5017484;28;20065;-89
2021/10/11 11:02:24;;;;;;;12.47;7.77;;;19.50;99.70;;;;;;5017547;28;20068;-89
2021/10/11 11:04:57;;;;;;;17.42;7.50;;;19.00;99.80;;;;;;5017547;28;20029;-89
2021/10/11 11:07:31;;;;;;;15.38;8.45;;;18.80;99.30;;;;;;5017368;28;20112;-88
2021/10/11 11:09:58;;;;;;;15.98;8.60;;;18.20;99.90;;;;;;5018653;28;20024;-88
2021/10/11 11:12:36;;;;;;;12.13;8.20;;;18.30;99.90;;;;;;5019031;28;20018;-89
2021/10/11 11:15:05;;;;;;;13.45;8.65;;;18.50;99.90;;;;;;5017715;28;20025;-89
2021/10/11 11:17:33;;;;;;;15.05;8.07;;;18.30;99.90;;;;;;5017538;28;20068;-89
2021/10/11 11:19:59;;;;;;;13.88;8.02;;;18.40;99.80;;;;;;5017338;28;20236;-89
2021/10/11 11:22:34;;;;;;;14.73;8.40;;;18.40;99.90;;;;;;5019195;28;20052;-89
2021/10/11 11:25:01;;;;;;;13.85;7.70;;;18.90;99.50;;;;;;5017388;28;20076;-89
2021/10/11 11:27:29;;;;;;;13.13;8.18;;;18.50;99.30;;;;;;5017878;28;20026;-89
2021/10/11 11:30:01;;;;;;;17.88;9.18;;;18.50;99.60;;;;;;5017681;28;20022;-89
2021/10/11 11:32:27;;;;;;;21.98;9.40;;;18.70;99.10;;;;;;5016886;28;20481;-90
2021/10/11 11:34:53;;;;;;;13.20;8.13;;;19.60;98.30;;;;;;5016762;28;20022;-89
2021/10/11 11:37:19;;;;;;;14.95;7.63;;;19.80;97.60;;;;;;5016471;28;20211;-89
2021/10/11 11:39:44;;;;;;;11.38;7.20;;;20.20;97.30;;;;;;5016546;28;20055;-89
2021/10/11 11:42:10;;;;;;;17.92;7.18;;;20.60;96.70;;;;;;5034383;28;20021;-89
2021/10/11 11:44:36;;;;;;;10.95;7.35;;;19.70;96.50;;;;;;5016581;28;20026;-88
2021/10/11 11:47:08;;;;;;;12.75;7.65;;;19.70;97.40;;;;;;5016542;28;20485;-89
2021/10/11 11:49:40;;;;;;;16.10;7.90;;;19.90;96.80;;;;;;5016310;28;20026;-89
2021/10/11 11:52:12;;;;;;;12.20;6.40;;;20.20;96.20;;;;;;5016270;28;20032;-88
2021/10/11 11:54:54;;;;;;;14.82;7.47;;;20.60;95.80;;;;;;5033769;28;20405;-88
2021/10/11 11:57:20;;;;;;;18.83;8.40;;;20.30;96.10;;;;;;5016097;28;20485;-88
2021/10/11 11:59:48;;;;;;;12.82;9.68;;;19.80;96.70;;;;;;5015998;28;20036;-89
2021/10/11 12:02:17;;;;;;;12.00;7.68;;;19.20;97.20;;;;;;5016061;28;20029;-89
2021/10/11 12:04:45;;;;;;;12.75;8.85;;;18.60;98.30;;;;;;5016480;28;20032;-88
2021/10/11 12:07:12;;;;;;;18.80;9.20;;;18.80;98.70;;;;;;5015931;28;20068;-88
2021/10/11 12:09:38;;;;;;;13.50;8.25;;;18.50;98.40;;;;;;5016196;28;20370;-88
2021/10/11 12:12:06;;;;;;;15.55;8.73;;;19.20;98.20;;;;;;5015949;28;20504;-89
2021/10/11 12:14:33;;;;;;;12.25;8.98;;;19.50;97.40;;;;;;5033601;28;20108;-88
2021/10/11 12:17:08;;;;;;;14.93;9.38;;;19.80;97.10;;;;;;5015912;28;20032;-89
2021/10/11 12:19:38;;;;;;;15.35;9.77;;;19.60;97.30;;;;;;5034262;28;20030;-88
2021/10/11 12:22:05;;;;;;;22.63;10.23;;;18.70;98.90;;;;;;5016244;28;20508;-89
2021/10/11 12:24:32;;;;;;;17.73;10.40;;;18.20;99.00;;;;;;5016034;28;20068;-89
2021/10/11 12:27:07;;;;;;;19.33;10.27;;;17.50;99.90;;;;;;5015968;28;20045;-88
2021/10/11 12:29:36;;;;;;;14.25;9.10;;;17.10;99.90;;;;;;5015988;28;20025;-89
2021/10/11 12:32:08;;;;;;;16.10;9.32;;;16.90;99.90;;;;;;5015774;28;20051;-89
2021/10/11 12:34:40;;;;;;;15.40;10.43;;;17.70;99.90;;;;;;5016045;28;20060;-89
2021/10/11 12:37:15;;;;;;;11.95;8.13;;;19.10;98.90;;;;;;5015727;28;20113;-88
2021/10/11 12:39:43;;;;;;;16.70;10.20;;;20.20;97.20;;;;;;5015318;28;20053;-88
2021/10/11 12:42:15;;;;;;;16.83;10.20;;;19.60;97.40;;;;;;5015690;28;20026;-89